createdAt,value
2018-11-21T00:00:12.761Z,4.60
2018-11-21T00:02:40.546Z,5.78
2018-11-21T00:05:08.439Z,7.73
2018-11-21T00:07:36.598Z,4.80
2018-11-21T00:10:06.514Z,9.47
2018-11-21T00:12:34.589Z,7.53
2018-11-21T00:15:02.539Z,6.57
2018-11-21T00:17:30.444Z,6.47
2018-11-21T00:19:58.380Z,4.93
2018-11-21T00:22:26.138Z,6.75
2018-11-21T00:24:53.945Z,3.10
2018-11-21T00:27:21.776Z,5.97
2018-11-21T00:29:49.569Z,9.23
2018-11-21T00:32:21.613Z,7.73
2018-11-21T00:34:49.990Z,5.63
2018-11-21T00:37:18.705Z,6.57
2018-11-21T00:39:46.635Z,6.67
2018-11-21T00:42:14.626Z,7.80
2018-11-21T00:44:42.644Z,8.97
2018-11-21T00:47:10.757Z,12.60
2018-11-21T00:49:38.601Z,12.93
2018-11-21T00:52:06.504Z,8.37
2018-11-21T00:54:35.003Z,8.70
2018-11-21T00:57:02.923Z,9.47
2018-11-21T00:59:31.199Z,9.93
2018-11-21T01:01:59.184Z,11.90
2018-11-21T01:04:27.156Z,9.33
2018-11-21T01:06:55.020Z,9.13
2018-11-21T01:09:22.902Z,7.03
2018-11-21T01:11:50.753Z,8.83
2018-11-21T01:14:18.654Z,12.43
2018-11-21T01:16:46.499Z,9.00
2018-11-21T01:19:14.285Z,10.43
2018-11-21T01:21:42.146Z,7.23
2018-11-21T01:24:10.009Z,11.67
2018-11-21T01:26:37.782Z,13.97
2018-11-21T01:29:05.766Z,13.33
2018-11-21T01:31:33.618Z,12.77
2018-11-21T01:34:01.610Z,16.67
2018-11-21T01:36:29.464Z,11.67
2018-11-21T01:38:57.490Z,11.87
2018-11-21T01:41:25.366Z,7.47
2018-11-21T01:43:53.391Z,13.00
2018-11-21T01:46:21.364Z,11.12
2018-11-21T01:48:49.392Z,6.77
2018-11-21T01:51:17.260Z,7.67
2018-11-21T01:53:45.100Z,9.73
2018-11-21T01:56:12.996Z,6.93
2018-11-21T01:58:40.955Z,6.30
2018-11-21T02:01:08.832Z,6.53
2018-11-21T02:03:37.180Z,14.87
2018-11-21T02:06:05.252Z,8.20
2018-11-21T02:08:33.253Z,6.30
2018-11-21T02:11:01.099Z,4.87
2018-11-21T02:13:28.884Z,12.17
2018-11-21T02:15:56.706Z,7.70
2018-11-21T02:18:24.588Z,10.27
2018-11-21T02:20:52.527Z,15.40
2018-11-21T02:23:20.554Z,7.53
2018-11-21T02:25:48.479Z,11.40
2018-11-21T02:28:16.180Z,11.60
2018-11-21T02:30:44.140Z,7.93
2018-11-21T02:33:11.918Z,17.37
2018-11-21T02:35:39.870Z,8.93
2018-11-21T02:38:07.643Z,14.20
2018-11-21T02:40:35.434Z,10.33
2018-11-21T02:43:03.268Z,7.97
2018-11-21T02:45:31.149Z,7.80
2018-11-21T02:47:59.087Z,7.07
2018-11-21T02:50:26.951Z,6.50
2018-11-21T02:52:54.841Z,9.77
2018-11-21T02:55:22.718Z,6.87
2018-11-21T02:57:50.551Z,11.17
2018-11-21T03:00:22.569Z,10.13
2018-11-21T03:02:50.482Z,9.43
2018-11-21T03:05:18.712Z,15.10
2018-11-21T03:07:50.691Z,7.87
2018-11-21T03:10:19.407Z,10.03
2018-11-21T03:12:47.098Z,11.30
2018-11-21T03:15:15.056Z,9.17
2018-11-21T03:17:42.935Z,10.57
2018-11-21T03:20:10.842Z,13.53
2018-11-21T03:22:39.046Z,16.90
2018-11-21T03:25:06.844Z,10.23
2018-11-21T03:27:34.795Z,13.33
2018-11-21T03:30:03.227Z,9.33
2018-11-21T03:32:31.216Z,10.60
2018-11-21T03:34:59.064Z,14.33
2018-11-21T03:37:27.058Z,13.07
2018-11-21T03:39:55.048Z,9.60
2018-11-21T03:42:22.990Z,11.93
2018-11-21T03:44:50.960Z,10.57
2018-11-21T03:47:18.881Z,14.03
2018-11-21T03:49:46.640Z,5.50
2018-11-21T03:52:14.463Z,8.80
2018-11-21T03:54:42.351Z,15.90
2018-11-21T03:57:10.295Z,9.53
2018-11-21T03:59:38.173Z,6.60
2018-11-21T04:02:06.051Z,8.23
2018-11-21T04:04:33.995Z,7.37
2018-11-21T04:07:01.801Z,8.70
2018-11-21T04:09:29.896Z,10.50
2018-11-21T04:11:57.643Z,10.00
2018-11-21T04:14:25.678Z,11.23
2018-11-21T04:16:53.646Z,15.13
2018-11-21T04:19:21.518Z,9.67
2018-11-21T04:21:49.366Z,12.45
2018-11-21T04:24:17.268Z,10.17
2018-11-21T04:26:45.123Z,13.67
2018-11-21T04:29:13.072Z,9.67
2018-11-21T04:31:40.847Z,8.23
2018-11-21T04:34:08.815Z,8.83
2018-11-21T04:36:36.673Z,14.67
2018-11-21T04:39:07.211Z,14.33
2018-11-21T04:41:35.273Z,8.80
2018-11-21T04:44:03.356Z,12.20
2018-11-21T04:46:31.219Z,9.67
2018-11-21T04:48:59.190Z,7.20
2018-11-21T04:51:27.067Z,9.63
2018-11-21T04:53:55.047Z,11.10
2018-11-21T04:56:22.980Z,9.93
2018-11-21T04:58:50.979Z,7.53
2018-11-21T05:01:19.125Z,7.40
2018-11-21T05:03:47.002Z,7.53
2018-11-21T05:06:14.884Z,8.87
2018-11-21T05:08:42.677Z,11.53
2018-11-21T05:11:10.603Z,7.50
2018-11-21T05:13:38.480Z,9.40
2018-11-21T05:16:06.540Z,4.90
2018-11-21T05:18:34.406Z,6.77
2018-11-21T05:21:02.285Z,7.93
2018-11-21T05:23:30.071Z,11.40
2018-11-21T05:25:57.830Z,13.57
2018-11-21T05:28:25.773Z,7.77
2018-11-21T05:30:53.638Z,12.25
2018-11-21T05:33:22.395Z,8.07
2018-11-21T05:35:50.291Z,6.13
2018-11-21T05:38:18.093Z,9.27
2018-11-21T05:40:45.849Z,5.27
2018-11-21T05:43:14.110Z,6.30
2018-11-21T05:45:41.893Z,5.87
2018-11-21T05:48:09.830Z,7.57
2018-11-21T05:50:37.707Z,9.13
2018-11-21T05:53:05.666Z,5.93
2018-11-21T05:55:33.636Z,6.60
2018-11-21T05:58:01.455Z,11.47
2018-11-21T06:00:29.296Z,9.70
2018-11-21T06:02:57.141Z,10.53
2018-11-21T06:05:25.560Z,10.05
2018-11-21T06:07:53.424Z,7.53
2018-11-21T06:10:21.431Z,12.17
2018-11-21T06:12:49.227Z,8.27
2018-11-21T06:15:17.118Z,10.20
2018-11-21T06:17:48.275Z,6.83
2018-11-21T06:20:13.940Z,9.00
2018-11-21T06:22:42.078Z,10.48
2018-11-21T06:25:10.801Z,7.33
2018-11-21T06:27:38.726Z,7.57
2018-11-21T06:30:07.964Z,13.07
2018-11-21T06:32:35.761Z,9.40
2018-11-21T06:35:03.903Z,8.63
2018-11-21T06:37:31.872Z,6.37
2018-11-21T06:39:59.752Z,9.17
2018-11-21T06:42:27.536Z,7.50
2018-11-21T06:44:55.485Z,5.60
2018-11-21T06:47:23.363Z,6.60
2018-11-21T06:49:51.291Z,10.13
2018-11-21T06:52:22.240Z,10.90
2018-11-21T06:54:47.068Z,8.40
2018-11-21T06:57:15.010Z,15.90
2018-11-21T06:59:42.986Z,9.73
2018-11-21T07:02:10.773Z,11.27
2018-11-21T07:04:38.709Z,12.50
2018-11-21T07:07:06.695Z,9.00
2018-11-21T07:09:34.572Z,11.43
2018-11-21T07:12:02.514Z,10.87
2018-11-21T07:14:30.481Z,10.00
2018-11-21T07:16:58.379Z,5.73
2018-11-21T07:19:26.200Z,7.70
2018-11-21T07:21:54.007Z,10.00
2018-11-21T07:24:26.317Z,9.00
2018-11-21T07:26:49.823Z,8.03
2018-11-21T07:29:17.804Z,7.40
2018-11-21T07:31:45.686Z,9.53
2018-11-21T07:34:13.639Z,9.43
2018-11-21T07:36:46.124Z,6.57
2018-11-21T07:39:14.050Z,6.20
2018-11-21T07:41:42.000Z,7.43
2018-11-21T07:44:10.033Z,9.93
2018-11-21T07:46:37.854Z,7.07
2018-11-21T07:49:05.752Z,7.50
2018-11-21T07:51:33.777Z,7.37
2018-11-21T07:54:01.710Z,8.33
2018-11-21T07:56:33.123Z,9.43
2018-11-21T07:59:01.085Z,10.87
2018-11-21T08:01:35.307Z,5.13
2018-11-21T08:04:17.534Z,10.57
2018-11-21T08:07:04.834Z,5.57
2018-11-21T08:09:51.032Z,6.03
2018-11-21T08:12:26.063Z,5.30
2018-11-21T08:15:19.484Z,4.17
2018-11-21T08:18:19.042Z,4.03
2018-11-21T08:21:04.851Z,6.53
2018-11-21T08:23:55.632Z,4.10
2018-11-21T08:26:41.220Z,4.80
2018-11-21T08:29:09.187Z,5.07
2018-11-21T08:31:37.049Z,5.80
2018-11-21T08:34:04.914Z,3.50
2018-11-21T08:36:33.224Z,3.77
2018-11-21T08:39:01.163Z,1.33
2018-11-21T08:41:29.639Z,4.63
2018-11-21T08:46:25.391Z,4.80
2018-11-21T08:48:53.244Z,6.07
2018-11-21T08:51:21.225Z,5.90
2018-11-21T08:53:50.530Z,3.03
2018-11-21T08:56:18.467Z,5.37
2018-11-21T08:58:46.549Z,5.35
2018-11-21T09:01:14.332Z,2.50
2018-11-21T09:03:42.267Z,7.40
2018-11-21T09:06:10.164Z,4.90
2018-11-21T09:08:41.554Z,4.30
2018-11-21T09:11:09.364Z,3.77
2018-11-21T09:13:37.435Z,5.97
2018-11-21T09:16:09.800Z,8.07
2018-11-21T09:18:37.881Z,3.33
2018-11-21T09:21:06.984Z,6.20
2018-11-21T09:23:36.088Z,4.67
2018-11-21T09:26:04.744Z,7.23
2018-11-21T09:28:35.112Z,4.40
2018-11-21T09:31:04.695Z,5.67
2018-11-21T09:33:32.650Z,7.00
2018-11-21T09:36:04.106Z,3.50
2018-11-21T09:38:35.195Z,4.70
2018-11-21T09:41:03.217Z,6.50
2018-11-21T09:43:31.118Z,8.07
2018-11-21T09:45:59.216Z,3.40
2018-11-21T09:48:27.009Z,11.00
2018-11-21T09:50:55.024Z,5.50
2018-11-21T09:53:22.959Z,4.90
2018-11-21T09:55:51.031Z,5.03
2018-11-21T09:58:19.007Z,4.83
2018-11-21T10:01:05.403Z,5.97
2018-11-21T10:03:35.111Z,8.03
2018-11-21T10:06:05.127Z,6.73
2018-11-21T10:08:52.554Z,7.07
2018-11-21T10:11:20.791Z,5.00
2018-11-21T10:13:48.594Z,5.20
2018-11-21T10:16:16.617Z,5.27
2018-11-21T10:18:45.826Z,3.13
2018-11-21T10:21:15.471Z,3.00
2018-11-21T10:23:43.273Z,4.93
2018-11-21T10:26:11.205Z,6.30
2018-11-21T10:28:39.196Z,3.17
2018-11-21T10:31:07.767Z,5.90
2018-11-21T10:33:35.611Z,9.37
2018-11-21T10:36:03.698Z,6.00
2018-11-21T10:38:31.765Z,5.97
2018-11-21T10:40:59.758Z,2.87
2018-11-21T10:43:28.497Z,3.07
2018-11-21T10:45:55.776Z,6.67
2018-11-21T10:48:23.672Z,5.85
2018-11-21T10:50:51.444Z,2.67
2018-11-21T10:53:19.411Z,4.23
2018-11-21T10:55:47.250Z,3.93
2018-11-21T10:58:15.334Z,3.93
2018-11-21T11:01:01.303Z,4.50
2018-11-21T11:03:31.524Z,4.63
2018-11-21T11:06:27.795Z,12.23
2018-11-21T11:09:30.393Z,5.03
2018-11-21T11:12:32.817Z,4.63
2018-11-21T11:15:18.815Z,3.70
2018-11-21T11:18:06.128Z,5.27
2018-11-21T11:20:52.127Z,4.67
2018-11-21T11:23:38.492Z,4.47
2018-11-21T11:26:38.032Z,7.67
2018-11-21T11:29:25.370Z,2.13
2018-11-21T11:32:11.343Z,3.63
2018-11-21T11:34:57.238Z,4.00
2018-11-21T11:37:37.331Z,7.77
2018-11-21T11:40:25.634Z,5.60
2018-11-21T11:43:09.165Z,3.23
2018-11-21T11:45:59.194Z,5.83
2018-11-21T11:48:52.002Z,3.83
2018-11-21T11:51:37.788Z,4.70
2018-11-21T11:54:32.690Z,3.00
2018-11-21T11:57:22.981Z,4.63
2018-11-21T12:00:08.974Z,2.50
2018-11-21T12:02:53.303Z,5.50
2018-11-21T12:05:38.293Z,2.50
2018-11-21T12:08:14.576Z,3.73
2018-11-21T12:11:00.692Z,5.17
2018-11-21T12:14:03.333Z,4.77
2018-11-21T12:16:53.837Z,4.90
2018-11-21T12:19:46.785Z,3.87
2018-11-21T12:22:33.088Z,5.10
2018-11-21T12:25:38.864Z,6.13
2018-11-21T12:28:24.833Z,2.63
2018-11-21T12:31:18.811Z,5.33
2018-11-21T12:34:04.596Z,6.63
2018-11-21T12:37:07.382Z,3.27
2018-11-21T12:40:06.792Z,3.40
2018-11-21T12:42:52.985Z,3.47
2018-11-21T12:45:55.669Z,4.53
2018-11-21T12:48:42.688Z,3.92
2018-11-21T12:51:30.421Z,3.77
2018-11-21T12:54:31.005Z,6.07
2018-11-21T12:57:17.348Z,3.03
2018-11-21T13:00:04.466Z,3.03
2018-11-21T13:02:48.094Z,5.20
2018-11-21T13:05:24.982Z,5.00
2018-11-21T13:08:16.992Z,5.33
2018-11-21T13:11:13.489Z,4.87
2018-11-21T13:14:07.634Z,5.07
2018-11-21T13:16:48.286Z,10.07
2018-11-21T13:19:34.907Z,5.10
2018-11-21T13:22:16.623Z,8.37
2018-11-21T13:25:08.105Z,6.50
2018-11-21T13:27:56.945Z,5.90
2018-11-21T13:30:44.857Z,9.03
2018-11-21T13:33:45.227Z,6.83
2018-11-21T13:36:42.191Z,5.43
2018-11-21T13:39:51.402Z,5.13
2018-11-21T13:42:42.113Z,5.07
2018-11-21T13:45:29.559Z,3.77
2018-11-21T13:48:23.126Z,4.67
2018-11-21T13:51:09.119Z,5.28
2018-11-21T13:54:02.476Z,5.27
2018-11-21T13:56:30.441Z,4.47
2018-11-21T13:58:58.534Z,5.63
2018-11-21T14:01:26.652Z,3.37
2018-11-21T14:03:54.651Z,8.70
2018-11-21T14:06:22.736Z,5.03
2018-11-21T14:08:50.777Z,3.13
2018-11-21T14:11:21.992Z,6.90
2018-11-21T14:13:50.124Z,9.00
2018-11-21T14:16:18.197Z,5.03
2018-11-21T14:18:46.298Z,7.63
2018-11-21T14:21:14.366Z,5.63
2018-11-21T14:23:42.415Z,7.03
2018-11-21T14:26:10.687Z,9.03
2018-11-21T14:28:39.476Z,7.43
2018-11-21T14:31:08.065Z,3.43
2018-11-21T14:33:36.479Z,7.77
2018-11-21T14:36:07.432Z,5.97
2018-11-21T14:38:39.457Z,6.60
2018-11-21T14:41:13.595Z,5.83
2018-11-21T14:43:42.048Z,4.63
2018-11-21T14:46:16.372Z,11.30
2018-11-21T14:48:44.540Z,4.50
2018-11-21T14:51:12.552Z,4.50
2018-11-21T14:53:43.574Z,4.90
2018-11-21T14:56:13.619Z,6.57
2018-11-21T14:58:54.061Z,7.80
2018-11-21T15:01:22.399Z,8.53
2018-11-21T15:03:51.794Z,9.47
2018-11-21T15:06:19.896Z,7.73
2018-11-21T15:08:52.739Z,6.83
2018-11-21T15:11:20.838Z,8.15
2018-11-21T15:13:48.788Z,7.37
2018-11-21T15:16:16.935Z,7.40
2018-11-21T15:18:52.295Z,8.80
2018-11-21T15:21:20.656Z,6.33
2018-11-21T15:23:48.805Z,6.20
2018-11-21T15:26:17.135Z,8.27
2018-11-21T15:28:45.301Z,10.63
2018-11-21T15:31:13.423Z,8.00
2018-11-21T15:33:41.656Z,11.03
2018-11-21T15:36:10.124Z,8.47
2018-11-21T15:38:38.337Z,7.20
2018-11-21T15:41:08.433Z,7.57
2018-11-21T15:43:37.322Z,7.93
2018-11-21T15:46:07.848Z,10.10
2018-11-21T15:48:36.334Z,7.20
2018-11-21T15:51:10.395Z,7.87
2018-11-21T15:53:39.530Z,6.20
2018-11-21T15:56:07.653Z,4.70
2018-11-21T15:58:36.454Z,7.17
2018-11-21T16:01:04.779Z,4.60
2018-11-21T16:03:32.705Z,5.87
2018-11-21T16:06:00.715Z,9.67
2018-11-21T16:08:28.796Z,12.73
2018-11-21T16:10:57.131Z,11.10
2018-11-21T16:13:24.928Z,11.23
2018-11-21T16:15:53.735Z,13.97
2018-11-21T16:18:27.506Z,14.38
2018-11-21T16:20:55.428Z,10.67
2018-11-21T16:23:23.581Z,12.60
2018-11-21T16:25:51.840Z,14.27
2018-11-21T16:28:19.977Z,18.63
2018-11-21T16:30:48.176Z,8.87
2018-11-21T16:33:16.248Z,12.53
2018-11-21T16:35:44.409Z,13.00
2018-11-21T16:38:12.623Z,11.03
2018-11-21T16:40:40.926Z,7.87
2018-11-21T16:43:08.945Z,11.27
2018-11-21T16:45:39.993Z,8.40
2018-11-21T16:48:08.196Z,9.10
2018-11-21T16:50:36.144Z,10.80
2018-11-21T16:53:04.188Z,12.30
2018-11-21T16:55:33.832Z,12.63
2018-11-21T16:58:02.847Z,19.27
2018-11-21T17:00:31.886Z,15.33
2018-11-21T17:03:00.011Z,13.23
2018-11-21T17:05:28.426Z,14.47
2018-11-21T17:07:56.561Z,12.97
2018-11-21T17:10:26.133Z,12.00
2018-11-21T17:12:54.259Z,15.57
2018-11-21T17:15:24.426Z,11.40
2018-11-21T17:17:52.417Z,10.30
2018-11-21T17:20:22.061Z,16.10
2018-11-21T17:22:51.817Z,11.27
2018-11-21T17:25:21.267Z,14.10
2018-11-21T17:27:49.512Z,15.47
2018-11-21T17:30:19.000Z,16.23
2018-11-21T17:32:47.168Z,13.03
2018-11-21T17:35:16.882Z,17.67
2018-11-21T17:37:49.206Z,15.07
2018-11-21T17:40:27.332Z,18.17
2018-11-21T17:42:55.865Z,13.77
2018-11-21T17:45:23.738Z,16.60
2018-11-21T17:47:51.922Z,15.60
2018-11-21T17:50:21.499Z,16.90
2018-11-21T17:52:50.698Z,13.33
2018-11-21T17:55:20.706Z,14.53
2018-11-21T17:57:49.130Z,15.87
2018-11-21T18:00:18.999Z,19.00
2018-11-21T18:02:47.047Z,21.70
2018-11-21T18:05:16.578Z,20.70
2018-11-21T18:07:44.642Z,16.93
2018-11-21T18:10:17.737Z,14.77
2018-11-21T18:12:46.147Z,20.37
2018-11-21T18:15:14.878Z,23.17
2018-11-21T18:17:43.986Z,35.13
2018-11-21T18:20:12.670Z,27.93
2018-11-21T18:22:41.314Z,24.93
2018-11-21T18:25:18.042Z,24.50
2018-11-21T18:27:45.911Z,25.20
2018-11-21T18:30:16.132Z,27.90
2018-11-21T18:32:44.529Z,25.00
2018-11-21T18:35:14.055Z,24.50
2018-11-21T18:37:43.008Z,25.17
2018-11-21T18:40:13.541Z,30.30
2018-11-21T18:42:44.241Z,30.75
2018-11-21T18:45:18.075Z,24.90
2018-11-21T18:47:46.546Z,27.57
2018-11-21T18:50:15.673Z,24.60
2018-11-21T18:52:43.976Z,28.77
2018-11-21T18:55:14.369Z,27.37
2018-11-21T18:58:11.408Z,28.90
2018-11-21T19:00:40.300Z,30.70
2018-11-21T19:03:08.362Z,31.13
2018-11-21T19:05:36.231Z,31.03
2018-11-21T19:08:04.523Z,35.37
2018-11-21T19:10:32.470Z,40.30
2018-11-21T19:13:01.168Z,36.80
2018-11-21T19:15:29.255Z,40.13
2018-11-21T19:17:57.469Z,38.73
2018-11-21T19:20:25.649Z,42.60
2018-11-21T19:22:54.281Z,40.83
2018-11-21T19:25:22.374Z,40.07
2018-11-21T19:27:50.520Z,41.57
2018-11-21T19:30:19.606Z,34.67
2018-11-21T19:32:47.767Z,34.63
2018-11-21T19:35:15.928Z,30.40
2018-11-21T19:37:44.148Z,32.67
2018-11-21T19:40:13.332Z,30.07
2018-11-21T19:42:41.385Z,28.40
2018-11-21T19:45:14.559Z,32.00
2018-11-21T19:47:45.224Z,33.30
2018-11-21T19:50:14.423Z,28.67
